createdAt,value
2019-05-29T00:00:24.242Z,8.30
2019-05-29T00:05:28.152Z,8.30
2019-05-29T00:10:30.969Z,8.20
2019-05-29T00:15:33.576Z,8.30
2019-05-29T00:20:36.279Z,8.30
2019-05-29T00:25:38.927Z,8.20
2019-05-29T00:30:41.793Z,8.20
2019-05-29T00:35:44.714Z,8.20
2019-05-29T00:40:47.579Z,8.20
2019-05-29T00:45:50.269Z,8.20
2019-05-29T00:50:53.161Z,8.20
2019-05-29T00:55:55.811Z,8.00
2019-05-29T01:00:58.563Z,8.10
2019-05-29T01:06:01.411Z,8.10
2019-05-29T01:11:04.258Z,8.00
2019-05-29T01:16:07.243Z,8.00
2019-05-29T01:21:09.951Z,8.00
2019-05-29T01:26:12.633Z,8.00
2019-05-29T01:31:15.287Z,7.90
2019-05-29T01:36:18.045Z,7.90
2019-05-29T01:41:21.475Z,8.00
2019-05-29T01:46:24.249Z,7.90
2019-05-29T01:51:28.036Z,7.90
2019-05-29T01:56:30.727Z,7.90
2019-05-29T02:01:33.375Z,7.90
2019-05-29T02:06:36.090Z,7.80
2019-05-29T02:11:38.744Z,7.80
2019-05-29T02:16:41.385Z,7.80
2019-05-29T02:21:44.127Z,7.80
2019-05-29T02:26:46.760Z,7.80
2019-05-29T02:31:49.437Z,7.70
2019-05-29T02:36:52.214Z,7.70
2019-05-29T02:41:54.950Z,7.70
2019-05-29T02:46:57.611Z,7.70
2019-05-29T02:52:00.305Z,7.70
2019-05-29T02:57:03.110Z,7.70
2019-05-29T03:02:05.873Z,7.60
2019-05-29T03:07:08.663Z,7.60
2019-05-29T03:12:11.396Z,7.60
2019-05-29T03:17:14.136Z,7.70
2019-05-29T03:22:16.876Z,7.70
2019-05-29T03:27:19.739Z,7.70
2019-05-29T03:32:22.465Z,7.70
2019-05-29T03:37:26.305Z,7.70
2019-05-29T03:42:30.285Z,7.80
2019-05-29T03:47:33.579Z,7.80
2019-05-29T03:52:38.854Z,7.90
2019-05-29T03:57:41.883Z,7.90
2019-05-29T04:02:46.140Z,8.00
2019-05-29T04:07:49.097Z,8.10
2019-05-29T04:12:51.913Z,8.20
2019-05-29T04:17:55.858Z,8.30
2019-05-29T04:22:59.158Z,8.30
2019-05-29T04:28:05.170Z,8.40
2019-05-29T04:33:08.111Z,8.40
2019-05-29T04:38:10.935Z,8.30
2019-05-29T04:43:13.680Z,8.30
2019-05-29T04:48:16.341Z,8.50
2019-05-29T04:53:19.131Z,8.60
2019-05-29T04:58:21.839Z,8.80
2019-05-29T05:03:24.675Z,8.80
2019-05-29T05:08:27.452Z,8.70
2019-05-29T05:13:31.375Z,8.70
2019-05-29T05:18:34.281Z,8.70
2019-05-29T05:23:38.130Z,8.70
2019-05-29T05:28:43.349Z,8.90
2019-05-29T05:33:45.692Z,9.00
2019-05-29T05:38:48.447Z,9.10
2019-05-29T05:43:51.283Z,9.20
2019-05-29T05:48:54.058Z,9.30
2019-05-29T05:53:56.726Z,9.30
2019-05-29T05:58:59.488Z,9.40
2019-05-29T06:04:02.654Z,9.30
2019-05-29T06:09:06.688Z,9.20
2019-05-29T06:14:09.516Z,9.20
2019-05-29T06:19:12.204Z,9.30
2019-05-29T06:24:15.080Z,9.10
2019-05-29T06:29:17.853Z,8.90
2019-05-29T06:34:20.753Z,8.90
2019-05-29T06:39:23.508Z,9.00
2019-05-29T06:44:27.888Z,8.90
2019-05-29T06:49:31.012Z,9.30
2019-05-29T06:54:33.866Z,9.60
2019-05-29T06:59:36.487Z,9.60
2019-05-29T07:04:42.563Z,9.40
2019-05-29T07:09:45.391Z,9.40
2019-05-29T07:14:48.209Z,9.50
2019-05-29T07:20:02.926Z,9.50
2019-05-29T07:25:02.881Z,9.50
2019-05-29T07:30:23.580Z,9.60
2019-05-29T07:35:28.364Z,9.80
2019-05-29T07:40:36.150Z,9.70
2019-05-29T07:45:57.546Z,10.00
2019-05-29T07:51:10.689Z,10.10
2019-05-29T07:56:31.558Z,10.00
2019-05-29T08:02:17.259Z,10.20
2019-05-29T08:07:20.183Z,10.10
2019-05-29T08:12:22.826Z,10.40
2019-05-29T08:17:26.614Z,10.50
2019-05-29T08:22:37.273Z,10.50
2019-05-29T08:33:27.167Z,10.50
2019-05-29T08:38:33.247Z,10.40
2019-05-29T08:43:40.432Z,10.20
2019-05-29T08:48:57.903Z,10.20
2019-05-29T08:54:00.970Z,10.20
2019-05-29T08:59:04.140Z,10.40
2019-05-29T09:04:06.833Z,10.40
2019-05-29T09:09:09.760Z,10.50
2019-05-29T09:14:12.644Z,10.30
2019-05-29T09:19:21.078Z,10.00
2019-05-29T09:24:30.129Z,10.10
2019-05-29T09:29:55.243Z,10.10
2019-05-29T09:34:58.091Z,10.70
2019-05-29T09:40:00.980Z,10.80
2019-05-29T09:45:08.236Z,11.00
2019-05-29T09:50:15.602Z,10.60
2019-05-29T09:55:19.716Z,10.80
2019-05-29T10:00:23.778Z,10.80
2019-05-29T10:05:26.459Z,10.90
2019-05-29T10:10:29.253Z,11.00
2019-05-29T10:15:31.972Z,11.10
2019-05-29T10:20:34.689Z,11.10
2019-05-29T10:25:37.488Z,11.00
2019-05-29T10:30:42.048Z,11.10
2019-05-29T10:35:44.868Z,10.60
2019-05-29T10:41:00.463Z,10.90
2019-05-29T10:45:54.671Z,10.90
2019-05-29T10:50:57.730Z,10.90
2019-05-29T10:56:00.608Z,10.90
2019-05-29T11:01:03.549Z,10.60
2019-05-29T11:06:06.251Z,10.70
2019-05-29T11:11:09.085Z,11.00
2019-05-29T11:16:11.836Z,11.90
2019-05-29T11:21:14.701Z,12.50
2019-05-29T11:26:17.508Z,12.40
2019-05-29T11:31:20.261Z,11.90
2019-05-29T11:37:15.971Z,12.00
2019-05-29T11:42:27.163Z,12.70
2019-05-29T11:47:23.614Z,13.20
2019-05-29T11:52:41.722Z,13.00
2019-05-29T11:57:32.924Z,13.50
2019-05-29T12:02:37.479Z,12.30
2019-05-29T12:07:40.399Z,12.00
2019-05-29T12:12:51.371Z,12.10
2019-05-29T12:18:18.478Z,13.50
2019-05-29T12:23:25.831Z,12.50
2019-05-29T12:28:21.972Z,13.70
2019-05-29T12:33:36.340Z,13.30
2019-05-29T12:38:41.200Z,12.90
2019-05-29T12:43:43.985Z,12.20
2019-05-29T12:49:01.753Z,13.50
2019-05-29T12:54:13.607Z,13.80
2019-05-29T12:59:28.302Z,14.10
2019-05-29T13:05:06.087Z,14.30
2019-05-29T13:09:49.133Z,14.30
2019-05-29T13:14:58.551Z,15.10
2019-05-29T13:20:21.795Z,15.80
2019-05-29T13:25:45.077Z,16.00
2019-05-29T13:30:52.391Z,14.40
2019-05-29T13:36:00.181Z,15.00
2019-05-29T13:41:10.579Z,15.00
2019-05-29T13:46:21.230Z,15.10
2019-05-29T13:51:24.307Z,14.20
2019-05-29T13:56:33.214Z,15.60
2019-05-29T14:01:39.063Z,16.50
2019-05-29T14:06:42.270Z,16.80
2019-05-29T14:11:51.866Z,16.80
2019-05-29T14:16:54.850Z,16.90
2019-05-29T14:21:57.730Z,17.50
2019-05-29T14:27:01.557Z,16.70
2019-05-29T14:32:05.047Z,16.70
2019-05-29T14:37:09.725Z,17.10
2019-05-29T14:42:12.929Z,17.50
2019-05-29T14:47:15.892Z,17.60
2019-05-29T14:52:18.846Z,16.20
2019-05-29T14:57:26.085Z,16.10
2019-05-29T15:02:26.770Z,16.80
2019-05-29T15:07:29.558Z,18.90
2019-05-29T15:12:32.479Z,19.70
2019-05-29T15:17:35.514Z,17.20
2019-05-29T15:22:38.907Z,16.20
2019-05-29T15:27:41.937Z,15.90
2019-05-29T15:32:47.799Z,16.20
2019-05-29T15:37:51.011Z,16.30
2019-05-29T15:43:03.516Z,16.70
2019-05-29T15:48:06.982Z,16.80
2019-05-29T15:53:11.020Z,15.30
2019-05-29T15:58:20.178Z,16.00
2019-05-29T16:03:23.313Z,15.90
2019-05-29T16:08:26.350Z,15.20
2019-05-29T16:13:29.354Z,15.90
2019-05-29T16:18:33.695Z,17.40
2019-05-29T16:23:37.803Z,16.50
2019-05-29T16:28:40.827Z,16.30
2019-05-29T16:33:45.027Z,16.10
2019-05-29T16:38:47.871Z,16.10
2019-05-29T16:43:51.376Z,14.90
2019-05-29T16:48:56.420Z,14.90
2019-05-29T16:54:01.876Z,16.30
2019-05-29T16:59:05.646Z,16.90
2019-05-29T17:04:09.445Z,16.80
2019-05-29T17:09:14.413Z,17.90
2019-05-29T17:14:20.840Z,18.30
2019-05-29T17:19:23.115Z,18.80
2019-05-29T17:24:26.629Z,17.30
2019-05-29T17:43:24.743Z,18.20
2019-05-29T17:48:29.921Z,16.50
2019-05-29T17:53:51.528Z,17.50
2019-05-29T17:59:05.345Z,17.20
2019-05-29T18:04:20.339Z,17.10
2019-05-29T18:09:27.051Z,17.00
2019-05-29T18:14:27.880Z,15.60
2019-05-29T18:19:31.038Z,15.00
2019-05-29T18:24:36.102Z,14.50
2019-05-29T18:29:40.609Z,15.00
2019-05-29T18:34:44.638Z,15.00
2019-05-29T18:39:50.445Z,14.80
2019-05-29T18:44:57.351Z,15.20
2019-05-29T18:50:02.779Z,15.20
2019-05-29T18:55:07.133Z,15.30
2019-05-29T19:00:14.181Z,14.80
2019-05-29T19:05:17.702Z,13.40
2019-05-29T19:10:21.629Z,12.20
2019-05-29T19:15:30.317Z,11.40
2019-05-29T19:20:33.230Z,11.00
2019-05-29T19:25:36.020Z,10.60
2019-05-29T19:30:38.979Z,10.30
2019-05-29T19:35:41.892Z,10.20
2019-05-29T19:40:48.899Z,10.10
2019-05-29T19:45:51.721Z,10.00
2019-05-29T19:50:54.510Z,9.90
2019-05-29T19:55:57.264Z,9.80
2019-05-29T20:01:00.654Z,9.60
2019-05-29T20:06:03.683Z,9.50
2019-05-29T20:11:06.507Z,9.40
2019-05-29T20:16:10.825Z,9.30
2019-05-29T20:21:13.643Z,9.20
2019-05-29T20:26:16.402Z,9.10
2019-05-29T20:31:25.742Z,9.00
2019-05-29T20:36:28.558Z,8.90
2019-05-29T20:41:34.078Z,8.90
2019-05-29T20:46:36.622Z,8.90
2019-05-29T20:51:40.319Z,8.80
2019-05-29T20:56:46.560Z,8.80
2019-05-29T21:01:49.918Z,8.80
2019-05-29T21:06:55.725Z,8.80
2019-05-29T21:11:58.939Z,8.80
2019-05-29T21:17:01.872Z,8.80
2019-05-29T21:22:06.293Z,8.90
2019-05-29T21:27:08.951Z,8.90
2019-05-29T21:32:11.669Z,8.80
2019-05-29T21:37:14.385Z,8.70
2019-05-29T21:42:17.091Z,8.60
2019-05-29T21:47:19.856Z,8.60
2019-05-29T21:52:25.329Z,8.60
2019-05-29T21:57:28.417Z,8.70
2019-05-29T22:02:31.354Z,8.70
2019-05-29T22:07:34.078Z,8.60
2019-05-29T22:12:37.323Z,8.50
2019-05-29T22:17:40.201Z,8.30
2019-05-29T22:22:43.120Z,8.30
2019-05-29T22:27:46.004Z,8.30
2019-05-29T22:32:49.025Z,8.30
2019-05-29T22:37:51.848Z,8.20
2019-05-29T22:42:55.569Z,8.20
2019-05-29T22:47:59.877Z,8.30
2019-05-29T22:53:03.219Z,8.20
2019-05-29T22:58:07.423Z,8.20
2019-05-29T23:03:10.580Z,8.10
2019-05-29T23:08:13.489Z,8.00
2019-05-29T23:13:16.574Z,7.80
2019-05-29T23:18:19.500Z,7.80
2019-05-29T23:23:22.577Z,7.70
2019-05-29T23:28:25.722Z,7.50
2019-05-29T23:33:28.985Z,7.40
2019-05-29T23:38:31.868Z,7.20
2019-05-29T23:43:35.731Z,7.10
2019-05-29T23:48:38.466Z,7.00
2019-05-29T23:53:44.811Z,7.00
2019-05-29T23:58:47.617Z,6.90
